createdAt,value
2018-04-18T00:01:47.460Z,5.20
2018-04-18T00:04:15.007Z,5.93
2018-04-18T00:06:42.569Z,5.53
2018-04-18T00:09:10.144Z,5.30
2018-04-18T00:11:37.704Z,6.23
2018-04-18T00:14:05.283Z,5.77
2018-04-18T00:16:32.825Z,5.60
2018-04-18T00:19:00.468Z,5.57
2018-04-18T00:21:28.017Z,4.93
2018-04-18T00:23:55.573Z,4.97
2018-04-18T00:26:23.117Z,5.10
2018-04-18T00:28:50.886Z,5.10
2018-04-18T00:31:18.431Z,4.90
2018-04-18T00:33:46.009Z,5.10
2018-04-18T00:36:13.548Z,4.80
2018-04-18T00:38:41.124Z,4.50
2018-04-18T00:41:08.715Z,5.00
2018-04-18T00:43:36.407Z,4.30
2018-04-18T00:46:04.801Z,5.03
2018-04-18T00:48:33.117Z,4.40
2018-04-18T00:51:00.680Z,4.33
2018-04-18T00:53:28.251Z,4.90
2018-04-18T00:55:55.811Z,4.73
2018-04-18T00:58:23.396Z,4.53
2018-04-18T01:00:50.961Z,4.30
2018-04-18T01:03:18.614Z,4.13
2018-04-18T01:05:46.182Z,4.20
2018-04-18T01:08:13.720Z,4.10
2018-04-18T01:10:41.324Z,4.57
2018-04-18T01:13:09.641Z,4.20
2018-04-18T01:15:37.939Z,4.80
2018-04-18T01:18:05.497Z,4.53
2018-04-18T01:20:33.055Z,4.47
2018-04-18T01:23:00.795Z,4.03
2018-04-18T01:25:28.353Z,4.93
2018-04-18T01:27:55.913Z,4.87
2018-04-18T01:30:23.482Z,4.70
2018-04-18T01:32:51.047Z,4.80
2018-04-18T01:35:18.604Z,4.47
2018-04-18T01:37:46.177Z,4.37
2018-04-18T01:40:13.741Z,4.43
2018-04-18T01:42:42.260Z,4.40
2018-04-18T01:45:10.599Z,5.13
2018-04-18T01:47:38.177Z,4.67
2018-04-18T01:50:05.728Z,4.60
2018-04-18T01:52:33.283Z,4.87
2018-04-18T01:55:00.842Z,4.80
2018-04-18T01:57:28.431Z,4.70
2018-04-18T01:59:56.772Z,4.50
2018-04-18T02:02:25.256Z,4.70
2018-04-18T02:04:52.888Z,4.57
2018-04-18T02:07:20.447Z,4.63
2018-04-18T02:09:48.008Z,4.73
2018-04-18T02:12:15.685Z,4.73
2018-04-18T02:14:43.235Z,5.00
2018-04-18T02:17:10.779Z,5.20
2018-04-18T02:19:38.346Z,4.73
2018-04-18T02:22:05.880Z,5.20
2018-04-18T02:24:34.272Z,5.03
2018-04-18T02:27:01.824Z,5.50
2018-04-18T02:29:30.161Z,5.13
2018-04-18T02:31:57.715Z,5.17
2018-04-18T02:34:25.274Z,5.60
2018-04-18T02:36:52.826Z,5.63
2018-04-18T02:39:20.391Z,5.63
2018-04-18T02:41:47.943Z,5.67
2018-04-18T02:44:15.528Z,5.47
2018-04-18T02:46:43.135Z,5.27
2018-04-18T02:49:11.421Z,5.43
2018-04-18T02:51:38.979Z,5.10
2018-04-18T02:54:07.268Z,5.27
2018-04-18T02:56:34.899Z,5.57
2018-04-18T02:59:02.502Z,5.37
2018-04-18T03:01:30.187Z,5.30
2018-04-18T03:03:57.797Z,5.40
2018-04-18T03:06:25.372Z,5.60
2018-04-18T03:08:52.951Z,5.40
2018-04-18T03:11:21.515Z,6.00
2018-04-18T03:13:49.056Z,5.83
2018-04-18T03:16:16.726Z,5.53
2018-04-18T03:18:44.808Z,5.30
2018-04-18T03:21:12.612Z,5.43
2018-04-18T03:23:41.575Z,6.10
2018-04-18T03:26:09.227Z,6.10
2018-04-18T03:28:36.787Z,6.10
2018-04-18T03:31:04.482Z,5.70
2018-04-18T03:33:32.039Z,6.70
2018-04-18T03:35:59.651Z,5.93
2018-04-18T03:38:27.162Z,6.00
2018-04-18T03:40:54.728Z,6.27
2018-04-18T03:43:22.294Z,5.90
2018-04-18T03:45:49.863Z,6.13
2018-04-18T03:48:18.356Z,6.30
2018-04-18T03:50:46.866Z,6.50
2018-04-18T03:53:14.427Z,6.67
2018-04-18T03:55:41.973Z,5.63
2018-04-18T03:58:09.536Z,6.20
2018-04-18T04:00:37.172Z,6.47
2018-04-18T04:03:05.505Z,6.60
2018-04-18T04:05:33.048Z,6.53
2018-04-18T04:08:00.626Z,6.43
2018-04-18T04:10:28.181Z,6.83
2018-04-18T04:12:55.724Z,6.63
2018-04-18T04:15:23.289Z,6.70
2018-04-18T04:18:02.651Z,6.73
2018-04-18T04:20:42.093Z,6.67
2018-04-18T04:23:21.473Z,6.73
2018-04-18T04:25:49.776Z,7.30
2018-04-18T04:28:17.351Z,6.87
2018-04-18T04:30:44.943Z,7.20
2018-04-18T04:33:12.500Z,6.77
2018-04-18T04:35:40.215Z,7.20
2018-04-18T04:38:07.751Z,6.70
2018-04-18T04:40:36.076Z,7.17
2018-04-18T04:43:03.623Z,7.20
2018-04-18T04:45:31.192Z,7.07
2018-04-18T04:47:58.762Z,8.00
2018-04-18T04:50:29.765Z,7.60
2018-04-18T04:52:57.446Z,7.00
2018-04-18T04:55:24.986Z,7.50
2018-04-18T04:57:52.510Z,7.07
2018-04-18T05:00:20.819Z,7.43
2018-04-18T05:02:48.344Z,7.53
2018-04-18T05:05:15.907Z,6.80
2018-04-18T05:07:43.442Z,6.57
2018-04-18T05:10:10.984Z,7.93
2018-04-18T05:12:38.590Z,7.37
2018-04-18T05:15:06.903Z,7.60
2018-04-18T05:17:34.466Z,7.17
2018-04-18T05:20:02.027Z,7.47
2018-04-18T05:22:29.577Z,7.80
2018-04-18T05:24:57.100Z,7.40
2018-04-18T05:27:25.428Z,10.03
2018-04-18T05:29:53.129Z,7.43
2018-04-18T05:32:20.677Z,7.07
2018-04-18T05:34:48.353Z,7.40
2018-04-18T05:37:15.919Z,6.60
2018-04-18T05:39:43.496Z,6.43
2018-04-18T05:42:11.829Z,6.53
2018-04-18T05:44:39.376Z,6.93
2018-04-18T05:47:06.953Z,6.73
2018-04-18T05:49:34.487Z,7.23
2018-04-18T05:52:02.052Z,7.03
2018-04-18T05:54:29.695Z,7.10
2018-04-18T05:56:57.267Z,7.27
2018-04-18T05:59:25.541Z,7.27
2018-04-18T06:01:53.023Z,7.13
2018-04-18T06:04:20.595Z,7.50
2018-04-18T06:06:48.173Z,7.80
2018-04-18T06:09:15.756Z,7.57
2018-04-18T06:11:44.116Z,7.13
2018-04-18T06:14:11.703Z,7.10
2018-04-18T06:16:40.037Z,6.80
2018-04-18T06:19:07.633Z,6.67
2018-04-18T06:21:35.179Z,7.03
2018-04-18T06:24:03.512Z,8.00
2018-04-18T06:26:31.067Z,7.63
2018-04-18T06:28:58.666Z,8.20
2018-04-18T06:31:26.255Z,7.50
2018-04-18T06:33:54.588Z,7.37
2018-04-18T06:36:22.171Z,8.07
2018-04-18T06:38:49.759Z,8.07
2018-04-18T06:41:18.092Z,6.67
2018-04-18T06:43:45.733Z,7.17
2018-04-18T06:46:13.315Z,7.97
2018-04-18T06:48:40.875Z,7.87
2018-04-18T06:51:08.453Z,8.13
2018-04-18T06:53:36.165Z,7.90
2018-04-18T06:58:38.394Z,8.00
2018-04-18T07:01:06.012Z,7.33
2018-04-18T07:03:33.605Z,8.13
2018-04-18T07:06:01.191Z,8.10
2018-04-18T07:08:28.763Z,8.10
2018-04-18T07:10:57.102Z,7.40
2018-04-18T07:13:24.691Z,8.50
2018-04-18T07:15:53.763Z,8.40
2018-04-18T07:18:21.304Z,8.17
2018-04-18T07:20:48.893Z,8.27
2018-04-18T07:23:16.445Z,7.37
2018-04-18T07:25:44.038Z,7.87
2018-04-18T07:28:12.573Z,7.57
2018-04-18T07:30:40.123Z,8.33
2018-04-18T07:33:07.686Z,7.17
2018-04-18T07:35:35.259Z,7.93
2018-04-18T07:38:02.851Z,7.43
2018-04-18T07:40:30.403Z,7.47
2018-04-18T07:42:57.967Z,7.17
2018-04-18T07:45:25.544Z,7.27
2018-04-18T07:47:53.876Z,6.40
2018-04-18T07:50:21.464Z,6.70
2018-04-18T07:52:49.047Z,6.77
2018-04-18T07:55:16.596Z,6.17
2018-04-18T07:57:44.924Z,6.40
2018-04-18T08:00:12.487Z,6.70
2018-04-18T08:02:40.048Z,6.17
2018-04-18T08:05:07.625Z,5.53
2018-04-18T08:07:35.203Z,5.90
2018-04-18T08:10:02.788Z,5.77
2018-04-18T08:12:30.355Z,5.67
2018-04-18T08:14:57.948Z,5.83
2018-04-18T08:17:25.531Z,5.70
2018-04-18T08:19:53.101Z,6.13
2018-04-18T08:22:20.651Z,5.97
2018-04-18T08:24:48.223Z,5.67
2018-04-18T08:27:15.783Z,6.47
2018-04-18T08:29:43.396Z,6.03
2018-04-18T08:32:10.959Z,6.07
2018-04-18T08:34:38.536Z,5.30
2018-04-18T08:37:06.097Z,5.97
2018-04-18T08:39:33.661Z,5.63
2018-04-18T08:42:01.224Z,6.23
2018-04-18T08:44:28.802Z,6.13
2018-04-18T08:46:56.385Z,6.97
2018-04-18T08:49:24.724Z,5.93
2018-04-18T08:51:52.301Z,6.90
2018-04-18T08:54:19.856Z,5.63
2018-04-18T08:56:47.424Z,6.27
2018-04-18T08:59:15.003Z,6.67
2018-04-18T09:01:43.427Z,5.93
2018-04-18T09:04:10.988Z,5.73
2018-04-18T09:06:38.553Z,5.80
2018-04-18T09:09:06.971Z,5.73
2018-04-18T09:11:35.329Z,5.53
2018-04-18T09:14:03.849Z,6.23
2018-04-18T09:16:32.240Z,6.20
2018-04-18T09:18:59.787Z,5.83
2018-04-18T09:21:27.381Z,6.70
2018-04-18T09:23:55.005Z,6.20
2018-04-18T09:26:23.363Z,5.67
2018-04-18T09:28:51.816Z,5.53
2018-04-18T09:31:19.371Z,5.53
2018-04-18T09:33:46.958Z,5.70
2018-04-18T09:36:14.523Z,5.80
2018-04-18T09:38:42.117Z,6.10
2018-04-18T09:41:09.685Z,6.13
2018-04-18T09:43:37.392Z,6.07
2018-04-18T09:46:04.978Z,6.13
2018-04-18T09:48:32.540Z,5.50
2018-04-18T09:51:00.879Z,6.37
2018-04-18T09:53:29.029Z,5.80
2018-04-18T09:55:56.599Z,6.57
2018-04-18T09:58:24.382Z,6.10
2018-04-18T10:00:57.714Z,6.00
2018-04-18T10:03:26.040Z,6.33
2018-04-18T10:05:53.591Z,5.93
2018-04-18T10:08:21.191Z,6.20
2018-04-18T10:10:48.757Z,5.97
2018-04-18T10:13:16.322Z,5.83
2018-04-18T10:15:43.882Z,6.37
2018-04-18T10:18:11.429Z,6.03
2018-04-18T10:20:39.152Z,6.50
2018-04-18T10:23:06.719Z,6.10
2018-04-18T10:25:34.304Z,5.80
2018-04-18T10:28:01.877Z,6.33
2018-04-18T10:30:29.477Z,5.77
2018-04-18T10:32:57.048Z,5.87
2018-04-18T10:35:24.607Z,5.70
2018-04-18T10:37:52.160Z,5.93
2018-04-18T10:40:19.879Z,6.97
2018-04-18T10:42:47.436Z,6.13
2018-04-18T10:45:15.838Z,5.33
2018-04-18T10:47:44.186Z,5.40
2018-04-18T10:50:11.778Z,4.77
2018-04-18T10:52:40.110Z,4.60
2018-04-18T10:55:07.815Z,5.90
2018-04-18T10:57:36.128Z,4.93
2018-04-18T11:00:04.018Z,4.50
2018-04-18T11:02:31.581Z,5.00
2018-04-18T11:04:59.163Z,5.37
2018-04-18T11:07:26.724Z,5.03
2018-04-18T11:09:54.292Z,5.33
2018-04-18T11:12:21.872Z,4.70
2018-04-18T11:14:50.247Z,5.40
2018-04-18T11:17:17.860Z,5.00
2018-04-18T11:19:45.612Z,4.70
2018-04-18T11:22:13.208Z,4.70
2018-04-18T11:24:40.798Z,4.93
2018-04-18T11:27:09.128Z,4.80
2018-04-18T11:29:36.697Z,5.13
2018-04-18T11:32:04.411Z,4.40
2018-04-18T11:34:31.969Z,4.27
2018-04-18T11:36:59.553Z,4.40
2018-04-18T11:39:27.144Z,4.20
2018-04-18T11:41:54.728Z,3.63
2018-04-18T11:44:22.395Z,4.17
2018-04-18T11:46:50.893Z,4.73
2018-04-18T11:49:18.455Z,3.50
2018-04-18T11:51:46.059Z,3.80
2018-04-18T11:54:13.645Z,3.67
2018-04-18T11:56:41.253Z,4.00
2018-04-18T11:59:08.875Z,3.77
2018-04-18T12:01:36.509Z,3.90
2018-04-18T12:04:04.164Z,4.63
2018-04-18T12:06:31.712Z,4.57
2018-04-18T12:08:59.264Z,4.47
2018-04-18T12:11:26.905Z,4.33
2018-04-18T12:13:54.424Z,4.20
2018-04-18T12:16:22.748Z,3.30
2018-04-18T12:18:50.320Z,3.70
2018-04-18T12:21:18.900Z,4.03
2018-04-18T12:23:46.547Z,3.93
2018-04-18T12:26:14.321Z,4.27
2018-04-18T12:28:41.931Z,3.90
2018-04-18T12:31:09.493Z,4.40
2018-04-18T12:33:37.073Z,3.90
2018-04-18T12:36:05.436Z,3.90
2018-04-18T12:38:33.051Z,4.10
2018-04-18T12:41:00.661Z,3.63
2018-04-18T12:43:28.240Z,3.77
2018-04-18T12:45:56.572Z,4.20
2018-04-18T12:48:24.127Z,4.03
2018-04-18T12:50:51.792Z,3.90
2018-04-18T12:53:19.374Z,3.73
2018-04-18T12:55:46.947Z,3.83
2018-04-18T12:58:15.272Z,3.10
2018-04-18T13:00:42.831Z,3.50
2018-04-18T13:03:10.408Z,3.57
2018-04-18T13:05:38.000Z,3.83
2018-04-18T13:08:05.557Z,3.30
2018-04-18T13:10:33.130Z,3.33
2018-04-18T13:13:01.454Z,3.17
2018-04-18T13:15:29.023Z,3.63
2018-04-18T13:17:56.600Z,3.53
2018-04-18T13:20:24.262Z,3.07
2018-04-18T13:22:52.116Z,3.03
2018-04-18T13:25:19.718Z,3.10
2018-04-18T13:27:48.888Z,3.67
2018-04-18T13:30:16.933Z,3.40
2018-04-18T13:32:48.311Z,3.10
2018-04-18T13:35:18.634Z,2.90
2018-04-18T13:37:47.944Z,3.13
2018-04-18T13:40:16.864Z,4.43
2018-04-18T13:42:45.252Z,4.00
2018-04-18T13:45:13.599Z,3.70
2018-04-18T13:47:41.562Z,2.90
2018-04-18T13:50:09.604Z,3.33
2018-04-18T13:52:38.221Z,2.90
2018-04-18T13:55:07.309Z,3.17
2018-04-18T13:57:35.851Z,3.20
2018-04-18T14:00:05.293Z,2.80
2018-04-18T14:02:34.079Z,2.90
2018-04-18T14:05:02.284Z,2.60
2018-04-18T14:07:31.570Z,2.47
2018-04-18T14:09:59.705Z,2.27
2018-04-18T14:12:27.334Z,2.40
2018-04-18T14:14:55.843Z,2.63
2018-04-18T14:17:23.568Z,3.27
2018-04-18T14:19:51.926Z,2.60
2018-04-18T14:22:19.499Z,2.37
2018-04-18T14:24:48.022Z,2.20
2018-04-18T14:27:15.624Z,2.37
2018-04-18T14:29:43.469Z,2.40
2018-04-18T14:32:11.035Z,2.47
2018-04-18T14:34:38.626Z,2.80
2018-04-18T14:37:06.472Z,2.60
2018-04-18T14:39:34.740Z,2.40
2018-04-18T14:42:02.308Z,2.40
2018-04-18T14:44:30.021Z,2.87
2018-04-18T14:46:58.725Z,7.23
2018-04-18T14:49:26.445Z,6.00
2018-04-18T14:51:54.034Z,4.60
2018-04-18T14:54:21.851Z,2.43
2018-04-18T14:56:49.453Z,2.53
2018-04-18T14:59:17.154Z,2.47
2018-04-18T15:01:44.756Z,2.40
2018-04-18T15:04:12.492Z,2.67
2018-04-18T15:06:40.100Z,2.77
2018-04-18T15:09:08.481Z,2.87
2018-04-18T15:11:36.087Z,2.57
2018-04-18T15:14:03.703Z,2.60
2018-04-18T15:16:32.266Z,2.30
2018-04-18T15:18:59.851Z,2.50
2018-04-18T15:21:27.474Z,4.28
2018-04-18T15:23:56.261Z,2.45
2018-04-18T15:26:23.879Z,2.60
2018-04-18T15:28:51.953Z,2.40
2018-04-18T15:31:19.567Z,2.50
2018-04-18T15:33:47.777Z,2.87
2018-04-18T15:36:15.344Z,2.28
2018-04-18T15:38:42.916Z,3.97
2018-04-18T15:41:10.496Z,2.57
2018-04-18T15:43:38.131Z,2.83
2018-04-18T15:46:05.681Z,2.50
2018-04-18T15:48:33.638Z,2.85
2018-04-18T15:51:02.676Z,2.90
2018-04-18T15:53:30.259Z,2.53
2018-04-18T15:55:57.836Z,2.43
2018-04-18T15:58:26.369Z,3.17
2018-04-18T16:00:54.060Z,3.40
2018-04-18T16:03:22.607Z,9.13
2018-04-18T16:05:50.196Z,3.17
2018-04-18T16:08:18.614Z,2.90
2018-04-18T16:10:46.295Z,2.70
2018-04-18T16:13:14.814Z,2.83
2018-04-18T16:15:42.511Z,2.63
2018-04-18T16:18:10.129Z,3.40
2018-04-18T16:20:37.713Z,3.53
2018-04-18T16:23:06.128Z,4.47
2018-04-18T16:25:34.602Z,2.97
2018-04-18T16:28:03.042Z,2.67
2018-04-18T16:30:41.538Z,2.73
2018-04-18T16:33:09.148Z,2.43
2018-04-18T16:35:37.679Z,2.70
2018-04-18T16:38:05.251Z,2.77
2018-04-18T16:40:32.973Z,3.07
2018-04-18T16:43:01.371Z,3.67
2018-04-18T16:45:28.995Z,3.33
2018-04-18T16:47:56.568Z,2.90
2018-04-18T16:50:24.197Z,2.80
2018-04-18T16:52:51.724Z,3.50
2018-04-18T16:55:19.296Z,4.17
2018-04-18T16:57:46.953Z,6.40
2018-04-18T17:00:14.710Z,3.23
2018-04-18T17:02:42.247Z,3.00
2018-04-18T17:05:10.603Z,2.87
2018-04-18T17:07:38.214Z,3.10
2018-04-18T17:10:06.588Z,2.93
2018-04-18T17:12:34.208Z,2.97
2018-04-18T17:15:01.814Z,2.83
2018-04-18T17:17:29.515Z,3.00
2018-04-18T17:19:57.168Z,3.17
2018-04-18T17:22:24.743Z,2.95
2018-04-18T17:24:52.308Z,3.27
2018-04-18T17:27:20.769Z,2.80
2018-04-18T17:29:48.440Z,2.83
2018-04-18T17:32:16.030Z,2.90
2018-04-18T17:34:43.695Z,3.00
2018-04-18T17:37:12.031Z,2.77
2018-04-18T17:39:39.585Z,3.03
2018-04-18T17:42:07.185Z,2.53
2018-04-18T17:44:36.123Z,2.70
2018-04-18T17:47:03.702Z,3.10
2018-04-18T17:49:32.182Z,3.13
2018-04-18T17:51:59.735Z,3.70
2018-04-18T17:54:27.737Z,3.30
2018-04-18T17:56:55.293Z,3.43
2018-04-18T17:59:22.880Z,3.10
2018-04-18T18:01:52.132Z,3.20
2018-04-18T18:04:20.579Z,3.50
2018-04-18T18:06:48.149Z,3.37
2018-04-18T18:09:15.731Z,3.30
2018-04-18T18:11:43.276Z,3.57
2018-04-18T18:14:11.356Z,16.27
2018-04-18T18:16:38.909Z,4.80
2018-04-18T18:19:06.511Z,4.80
2018-04-18T18:21:35.077Z,5.57
2018-04-18T18:24:03.887Z,3.33
2018-04-18T18:26:33.233Z,3.57
2018-04-18T18:29:00.815Z,3.70
2018-04-18T18:31:28.445Z,4.00
2018-04-18T18:33:56.010Z,4.43
2018-04-18T18:36:23.584Z,6.67
2018-04-18T18:38:53.450Z,4.00
2018-04-18T18:41:21.031Z,3.70
2018-04-18T18:43:49.327Z,3.77
2018-04-18T18:46:16.918Z,3.70
2018-04-18T18:48:44.484Z,5.60
2018-04-18T18:51:12.053Z,5.90
2018-04-18T18:53:39.632Z,7.47
2018-04-18T18:56:07.980Z,11.03
2018-04-18T18:58:35.540Z,7.43
2018-04-18T19:01:03.108Z,5.30
2018-04-18T19:03:30.847Z,4.30
2018-04-18T19:05:58.408Z,4.90
2018-04-18T19:08:25.986Z,4.50
2018-04-18T19:10:53.617Z,4.27
2018-04-18T19:13:21.237Z,4.70
2018-04-18T19:15:48.799Z,4.53
2018-04-18T19:18:17.145Z,4.40
2018-04-18T19:20:44.716Z,4.50
2018-04-18T19:23:12.305Z,4.57
2018-04-18T19:25:40.616Z,4.60
2018-04-18T19:28:08.181Z,4.53
2018-04-18T19:30:35.754Z,4.10
2018-04-18T19:33:03.348Z,4.90
2018-04-18T19:35:32.788Z,4.53
2018-04-18T19:38:00.364Z,5.30
2018-04-18T19:40:27.940Z,5.27
2018-04-18T19:42:55.573Z,5.80
2018-04-18T19:45:23.313Z,5.17
2018-04-18T19:47:51.732Z,6.90
2018-04-18T19:50:19.329Z,7.33
2018-04-18T19:52:46.897Z,5.47
2018-04-18T19:55:14.456Z,5.60
2018-04-18T19:57:41.992Z,6.97
2018-04-18T20:00:09.584Z,6.33
2018-04-18T20:02:37.333Z,5.63
2018-04-18T20:05:04.953Z,6.70
2018-04-18T20:07:32.529Z,4.63
2018-04-18T20:10:00.107Z,6.00
2018-04-18T20:12:27.668Z,5.63
2018-04-18T20:14:55.236Z,5.67
2018-04-18T20:17:22.968Z,5.83
2018-04-18T20:19:50.584Z,6.30
2018-04-18T20:22:18.936Z,5.67
2018-04-18T20:24:46.531Z,6.00
2018-04-18T20:27:14.855Z,5.40
2018-04-18T20:29:42.433Z,5.40
2018-04-18T20:32:09.973Z,5.20
2018-04-18T20:34:37.576Z,5.03
2018-04-18T20:37:05.935Z,4.97
2018-04-18T20:39:33.495Z,4.43
2018-04-18T20:42:01.061Z,4.23
2018-04-18T20:44:28.652Z,4.87
2018-04-18T20:46:56.348Z,4.80
2018-04-18T20:49:23.912Z,4.30
2018-04-18T20:51:51.497Z,4.60
2018-04-18T20:54:19.051Z,4.50
2018-04-18T20:56:46.612Z,4.00
2018-04-18T20:59:14.192Z,4.13
2018-04-18T21:01:41.932Z,4.20
2018-04-18T21:04:09.616Z,4.33
2018-04-18T21:06:37.195Z,4.37
2018-04-18T21:09:05.568Z,4.43
2018-04-18T21:11:33.393Z,4.10
2018-04-18T21:14:00.973Z,4.80
2018-04-18T21:16:28.540Z,4.30
2018-04-18T21:18:56.872Z,4.50
2018-04-18T21:21:24.613Z,4.77
2018-04-18T21:23:52.209Z,5.03
2018-04-18T21:26:19.837Z,4.90
2018-04-18T21:28:47.384Z,5.07
2018-04-18T21:31:15.716Z,5.13
2018-04-18T21:33:43.309Z,4.80
2018-04-18T21:36:10.949Z,4.80
2018-04-18T21:38:38.536Z,4.70
2018-04-18T21:41:06.884Z,4.80
2018-04-18T21:43:34.443Z,5.00
2018-04-18T21:46:02.011Z,5.20
2018-04-18T21:48:29.584Z,4.70
2018-04-18T21:50:57.145Z,5.17
2018-04-18T21:53:24.856Z,5.17
2018-04-18T21:55:52.412Z,5.07
2018-04-18T21:58:19.979Z,5.17
2018-04-18T22:00:47.548Z,5.10
2018-04-18T22:03:15.099Z,4.90
2018-04-18T22:05:42.676Z,4.60
2018-04-18T22:08:10.232Z,5.00
2018-04-18T22:10:37.835Z,4.87
2018-04-18T22:13:06.196Z,4.90
2018-04-18T22:15:33.869Z,4.83
2018-04-18T22:18:01.420Z,4.63
2018-04-18T22:20:29.289Z,5.00
2018-04-18T22:23:00.318Z,4.57
2018-04-18T22:25:27.899Z,4.77
2018-04-18T22:27:55.553Z,5.23
2018-04-18T22:30:23.120Z,5.13
2018-04-18T22:32:51.546Z,5.60
2018-04-18T22:35:19.153Z,5.00
2018-04-18T22:37:46.871Z,5.10
2018-04-18T22:40:14.464Z,5.30
2018-04-18T22:42:42.096Z,5.17
2018-04-18T22:45:09.659Z,5.40
2018-04-18T22:47:37.211Z,5.17
2018-04-18T22:50:04.817Z,5.30
2018-04-18T22:52:32.371Z,5.30
2018-04-18T22:54:59.968Z,5.33
2018-04-18T22:57:28.289Z,5.17
2018-04-18T22:59:55.923Z,5.07
2018-04-18T23:02:23.512Z,4.90
2018-04-18T23:04:51.098Z,5.00
2018-04-18T23:07:18.713Z,5.17
2018-04-18T23:09:46.269Z,4.97
2018-04-18T23:12:13.848Z,5.03
2018-04-18T23:14:41.398Z,5.20
2018-04-18T23:17:09.004Z,4.93
2018-04-18T23:19:36.570Z,5.40
2018-04-18T23:22:04.211Z,5.57
2018-04-18T23:24:31.774Z,5.23
2018-04-18T23:26:59.336Z,5.13
2018-04-18T23:29:27.083Z,5.80
2018-04-18T23:31:54.655Z,5.57
2018-04-18T23:34:22.225Z,5.57
2018-04-18T23:36:49.793Z,5.33
2018-04-18T23:39:17.348Z,5.47
2018-04-18T23:41:44.933Z,5.37
2018-04-18T23:44:13.286Z,5.10
2018-04-18T23:46:40.864Z,5.20
2018-04-18T23:49:09.194Z,4.70
2018-04-18T23:51:36.764Z,4.20
2018-04-18T23:54:04.344Z,4.63
2018-04-18T23:56:31.929Z,4.60
2018-04-18T23:59:00.263Z,3.83
